createdAt,value
2017-11-23T00:01:21.296Z,9.50
2017-11-23T00:03:48.903Z,9.60
2017-11-23T00:06:17.297Z,9.70
2017-11-23T00:08:45.714Z,9.80
2017-11-23T00:11:13.314Z,9.80
2017-11-23T00:13:40.978Z,9.70
2017-11-23T00:16:08.581Z,9.70
2017-11-23T00:18:36.176Z,9.60
2017-11-23T00:21:04.716Z,9.50
2017-11-23T00:23:32.351Z,9.50
2017-11-23T00:26:00.733Z,9.40
2017-11-23T00:28:29.150Z,9.40
2017-11-23T00:30:56.785Z,9.40
2017-11-23T00:33:24.368Z,9.50
2017-11-23T00:35:52.766Z,9.40
2017-11-23T00:38:21.128Z,9.40
2017-11-23T00:40:48.721Z,9.40
2017-11-23T00:43:17.129Z,9.40
2017-11-23T00:45:44.701Z,9.40
2017-11-23T00:48:12.319Z,9.40
2017-11-23T00:50:40.149Z,9.40
2017-11-23T00:53:07.777Z,9.40
2017-11-23T00:55:35.400Z,9.40
2017-11-23T00:58:03.177Z,9.40
2017-11-23T01:00:30.723Z,9.30
2017-11-23T01:02:58.271Z,9.30
2017-11-23T01:05:26.035Z,9.30
2017-11-23T01:07:53.582Z,9.30
2017-11-23T01:10:21.132Z,9.30
2017-11-23T01:12:48.720Z,9.30
2017-11-23T01:15:16.268Z,9.30
2017-11-23T01:17:44.582Z,9.40
2017-11-23T01:20:12.290Z,9.40
2017-11-23T01:22:39.838Z,9.40
2017-11-23T01:25:07.393Z,9.40
2017-11-23T01:27:35.109Z,9.50
2017-11-23T01:30:02.679Z,9.40
2017-11-23T01:32:30.237Z,9.40
2017-11-23T01:34:57.931Z,9.40
2017-11-23T01:37:25.473Z,9.40
2017-11-23T01:39:53.129Z,9.50
2017-11-23T01:42:20.734Z,9.60
2017-11-23T01:44:48.285Z,9.60
2017-11-23T01:47:15.831Z,9.70
2017-11-23T01:49:43.429Z,9.70
2017-11-23T01:52:10.989Z,9.70
2017-11-23T01:54:38.532Z,9.70
2017-11-23T01:57:06.984Z,9.80
2017-11-23T01:59:34.540Z,9.80
2017-11-23T02:02:02.089Z,9.90
2017-11-23T02:04:29.796Z,9.90
2017-11-23T02:06:57.344Z,9.90
2017-11-23T02:09:24.953Z,9.90
2017-11-23T02:11:52.586Z,9.90
2017-11-23T02:14:20.175Z,10.00
2017-11-23T02:16:47.737Z,10.00
2017-11-23T02:19:15.428Z,10.00
2017-11-23T02:21:42.976Z,10.00
2017-11-23T02:24:10.533Z,10.10
2017-11-23T02:26:38.199Z,10.10
2017-11-23T02:29:05.756Z,10.10
2017-11-23T02:31:34.067Z,10.10
2017-11-23T02:34:01.657Z,10.10
2017-11-23T02:36:29.209Z,10.10
2017-11-23T02:38:56.768Z,10.10
2017-11-23T02:41:25.137Z,10.10
2017-11-23T02:43:52.688Z,10.10
2017-11-23T02:46:20.239Z,10.10
2017-11-23T02:48:47.835Z,10.10
2017-11-23T02:51:15.404Z,10.10
2017-11-23T02:53:42.955Z,10.20
2017-11-23T02:56:10.552Z,10.20
2017-11-23T02:58:38.104Z,10.20
2017-11-23T03:01:05.656Z,10.20
2017-11-23T03:03:33.248Z,10.20
2017-11-23T03:06:00.796Z,10.20
2017-11-23T03:08:28.343Z,10.10
2017-11-23T03:10:56.800Z,10.20
2017-11-23T03:13:24.360Z,10.20
2017-11-23T03:15:51.913Z,10.10
2017-11-23T03:18:19.512Z,10.00
2017-11-23T03:20:47.060Z,10.00
2017-11-23T03:23:14.613Z,10.00
2017-11-23T03:25:42.240Z,10.00
2017-11-23T03:28:09.793Z,9.90
2017-11-23T03:30:37.341Z,10.00
2017-11-23T03:33:04.953Z,10.10
2017-11-23T03:35:33.289Z,10.10
2017-11-23T03:38:00.845Z,10.10
2017-11-23T03:40:28.601Z,10.10
2017-11-23T03:42:56.926Z,10.20
2017-11-23T03:45:24.476Z,10.10
2017-11-23T03:47:52.855Z,10.20
2017-11-23T03:50:20.436Z,10.20
2017-11-23T03:52:47.989Z,10.30
2017-11-23T03:55:16.444Z,10.40
2017-11-23T03:57:43.987Z,10.50
2017-11-23T04:00:11.540Z,10.50
2017-11-23T04:02:39.907Z,10.30
2017-11-23T04:05:07.465Z,10.30
2017-11-23T04:07:35.776Z,9.10
2017-11-23T04:10:04.144Z,10.30
2017-11-23T04:12:31.696Z,10.20
2017-11-23T04:14:59.248Z,10.20
2017-11-23T04:17:26.853Z,10.20
2017-11-23T04:19:54.403Z,10.20
2017-11-23T04:22:21.957Z,10.20
2017-11-23T04:24:49.548Z,10.20
2017-11-23T04:27:17.108Z,10.20
2017-11-23T04:29:44.656Z,10.20
2017-11-23T04:32:12.375Z,10.20
2017-11-23T04:34:39.919Z,10.20
2017-11-23T04:37:07.472Z,10.20
2017-11-23T04:39:35.188Z,10.30
2017-11-23T04:42:02.733Z,10.20
2017-11-23T04:44:30.291Z,10.30
2017-11-23T04:46:57.903Z,10.30
2017-11-23T04:49:25.455Z,10.30
2017-11-23T04:51:53.732Z,10.20
2017-11-23T04:54:21.540Z,10.30
2017-11-23T04:56:49.092Z,10.30
2017-11-23T04:59:16.641Z,10.30
2017-11-23T05:01:44.240Z,10.20
2017-11-23T05:04:11.792Z,10.20
2017-11-23T05:06:39.746Z,10.20
2017-11-23T05:09:07.603Z,10.30
2017-11-23T05:11:35.152Z,10.20
2017-11-23T05:14:02.697Z,10.30
2017-11-23T05:16:30.305Z,10.20
2017-11-23T05:18:57.865Z,10.20
2017-11-23T05:21:25.411Z,10.20
2017-11-23T05:23:53.032Z,10.20
2017-11-23T05:26:21.347Z,10.10
2017-11-23T05:28:49.667Z,10.10
2017-11-23T05:31:17.255Z,10.10
2017-11-23T05:33:44.801Z,10.10
2017-11-23T05:36:12.348Z,10.10
2017-11-23T05:38:40.718Z,10.10
2017-11-23T05:41:08.272Z,10.10
2017-11-23T05:43:35.827Z,10.10
2017-11-23T05:46:03.611Z,10.10
2017-11-23T05:48:31.164Z,10.10
2017-11-23T05:50:58.716Z,10.10
2017-11-23T05:53:26.317Z,10.20
2017-11-23T05:55:53.888Z,10.20
2017-11-23T05:58:21.441Z,10.20
2017-11-23T06:00:49.241Z,10.20
2017-11-23T06:03:16.788Z,10.30
2017-11-23T06:05:44.339Z,10.40
2017-11-23T06:08:12.180Z,10.40
2017-11-23T06:10:39.730Z,10.40
2017-11-23T06:13:07.284Z,10.40
2017-11-23T06:15:34.872Z,10.30
2017-11-23T06:18:02.421Z,10.30
2017-11-23T06:20:29.968Z,10.30
2017-11-23T06:22:58.333Z,10.30
2017-11-23T06:25:25.885Z,10.30
2017-11-23T06:27:53.431Z,10.40
2017-11-23T06:30:21.026Z,10.40
2017-11-23T06:32:49.585Z,10.30
2017-11-23T06:35:17.164Z,10.30
2017-11-23T06:37:44.765Z,10.30
2017-11-23T06:40:12.318Z,10.40
2017-11-23T06:42:39.873Z,10.40
2017-11-23T06:45:07.480Z,10.40
2017-11-23T06:47:35.045Z,10.50
2017-11-23T06:50:02.596Z,10.50
2017-11-23T06:52:30.256Z,10.50
2017-11-23T06:54:57.812Z,10.40
2017-11-23T06:57:26.128Z,10.40
2017-11-23T06:59:53.720Z,10.40
2017-11-23T07:02:21.279Z,10.50
2017-11-23T07:04:48.834Z,10.50
2017-11-23T07:07:16.425Z,10.40
2017-11-23T07:09:43.981Z,10.50
2017-11-23T07:12:11.532Z,10.50
2017-11-23T07:14:39.248Z,10.50
2017-11-23T07:17:06.814Z,10.50
2017-11-23T07:19:34.372Z,10.50
2017-11-23T07:22:01.979Z,10.50
2017-11-23T07:24:29.537Z,10.50
2017-11-23T07:26:57.097Z,10.60
2017-11-23T07:29:24.699Z,10.60
2017-11-23T07:31:52.256Z,10.60
2017-11-23T07:34:19.821Z,10.60
2017-11-23T07:36:47.429Z,10.60
2017-11-23T07:39:15.758Z,10.70
2017-11-23T07:41:43.313Z,10.70
2017-11-23T07:44:11.001Z,10.70
2017-11-23T07:46:38.560Z,10.70
2017-11-23T07:49:06.116Z,10.70
2017-11-23T07:51:34.478Z,10.50
2017-11-23T07:54:02.028Z,10.70
2017-11-23T07:56:29.583Z,10.70
2017-11-23T07:58:57.181Z,10.70
2017-11-23T08:01:24.768Z,10.70
2017-11-23T08:03:52.319Z,10.70
2017-11-23T08:06:19.969Z,10.70
2017-11-23T08:08:47.519Z,10.70
2017-11-23T08:11:15.068Z,10.80
2017-11-23T08:13:43.436Z,10.70
2017-11-23T08:16:12.495Z,10.70
2017-11-23T08:18:40.045Z,10.60
2017-11-23T08:21:08.508Z,10.60
2017-11-23T08:23:37.612Z,10.60
2017-11-23T08:26:05.178Z,10.60
2017-11-23T08:28:32.776Z,10.70
2017-11-23T08:31:01.088Z,10.70
2017-11-23T08:33:28.646Z,10.70
2017-11-23T08:35:57.204Z,10.80
2017-11-23T08:38:24.753Z,10.80
2017-11-23T08:40:52.675Z,10.90
2017-11-23T08:43:20.280Z,10.90
2017-11-23T08:45:47.836Z,11.00
2017-11-23T08:48:16.153Z,11.20
2017-11-23T08:50:43.749Z,11.10
2017-11-23T08:53:11.308Z,11.20
2017-11-23T08:55:38.881Z,11.20
2017-11-23T08:58:06.483Z,11.30
2017-11-23T09:00:34.052Z,11.30
2017-11-23T09:03:02.424Z,11.40
2017-11-23T09:05:30.208Z,11.50
2017-11-23T09:07:57.760Z,11.50
2017-11-23T09:10:25.308Z,11.60
2017-11-23T09:12:52.909Z,11.60
2017-11-23T09:15:20.477Z,11.80
2017-11-23T09:17:48.049Z,11.90
2017-11-23T09:20:15.645Z,12.00
2017-11-23T09:22:43.196Z,12.10
2017-11-23T09:25:10.759Z,12.10
2017-11-23T09:27:38.352Z,12.10
2017-11-23T09:30:05.899Z,12.20
2017-11-23T09:32:33.452Z,12.30
2017-11-23T09:35:01.053Z,12.30
2017-11-23T09:37:28.988Z,12.30
2017-11-23T09:39:57.311Z,12.50
2017-11-23T09:42:24.908Z,12.50
2017-11-23T09:44:52.471Z,12.50
2017-11-23T09:47:20.024Z,12.60
2017-11-23T09:49:47.621Z,12.80
2017-11-23T09:52:15.176Z,13.10
2017-11-23T09:54:42.735Z,13.40
2017-11-23T09:57:10.332Z,13.60
2017-11-23T09:59:37.897Z,13.80
2017-11-23T10:02:05.458Z,14.00
2017-11-23T10:04:33.252Z,14.20
2017-11-23T10:07:00.800Z,14.30
2017-11-23T10:09:28.348Z,14.50
2017-11-23T10:11:55.944Z,14.50
2017-11-23T10:14:29.337Z,14.50
2017-11-23T10:16:56.957Z,14.60
2017-11-23T10:19:24.515Z,14.60
2017-11-23T10:21:52.061Z,14.70
2017-11-23T10:24:19.651Z,14.80
2017-11-23T10:26:47.207Z,14.80
2017-11-23T10:29:14.754Z,14.80
2017-11-23T10:31:43.220Z,14.90
2017-11-23T10:34:10.767Z,14.90
2017-11-23T10:36:38.344Z,15.00
2017-11-23T10:39:05.945Z,15.00
2017-11-23T10:41:34.256Z,15.00
2017-11-23T10:44:01.808Z,15.00
2017-11-23T10:46:30.168Z,15.10
2017-11-23T10:48:57.741Z,15.10
2017-11-23T10:51:25.292Z,15.20
2017-11-23T10:53:52.905Z,15.30
2017-11-23T10:56:21.215Z,15.20
2017-11-23T10:58:48.774Z,15.20
2017-11-23T11:01:17.148Z,15.00
2017-11-23T11:03:44.700Z,15.00
2017-11-23T11:06:12.241Z,14.90
2017-11-23T11:08:39.852Z,14.90
2017-11-23T11:11:07.420Z,14.90
2017-11-23T11:13:35.019Z,14.80
2017-11-23T11:16:03.395Z,14.70
2017-11-23T11:18:30.954Z,14.70
2017-11-23T11:20:58.525Z,14.70
2017-11-23T11:23:27.141Z,14.60
2017-11-23T11:25:55.469Z,14.60
2017-11-23T11:28:23.023Z,14.60
2017-11-23T11:30:50.666Z,14.70
2017-11-23T11:33:18.227Z,14.70
2017-11-23T11:35:45.801Z,14.90
2017-11-23T11:38:13.421Z,15.00
2017-11-23T11:40:40.992Z,15.20
2017-11-23T11:43:08.561Z,15.40
2017-11-23T11:45:36.281Z,15.60
2017-11-23T11:48:03.836Z,15.70
2017-11-23T11:50:31.388Z,15.80
2017-11-23T11:52:58.983Z,15.90
2017-11-23T11:55:26.544Z,15.80
2017-11-23T11:57:54.113Z,15.60
2017-11-23T12:00:21.722Z,15.50
2017-11-23T12:02:50.052Z,15.20
2017-11-23T12:05:17.625Z,15.20
2017-11-23T12:07:45.336Z,15.10
2017-11-23T12:10:12.932Z,15.10
2017-11-23T12:12:40.504Z,15.10
2017-11-23T12:15:20.941Z,15.00
2017-11-23T12:18:14.159Z,15.00
2017-11-23T12:20:53.920Z,15.10
2017-11-23T12:23:33.339Z,14.90
2017-11-23T12:26:01.803Z,14.70
2017-11-23T12:28:41.364Z,14.60
2017-11-23T12:31:09.068Z,14.50
2017-11-23T12:33:36.625Z,14.40
2017-11-23T12:36:04.173Z,14.30
2017-11-23T12:38:31.768Z,14.30
2017-11-23T12:40:59.316Z,14.30
2017-11-23T12:43:26.860Z,14.20
2017-11-23T12:45:55.312Z,14.10
2017-11-23T12:48:22.865Z,14.10
2017-11-23T12:50:50.414Z,14.00
2017-11-23T12:53:18.012Z,13.90
2017-11-23T12:55:45.565Z,13.90
2017-11-23T12:58:13.121Z,13.90
2017-11-23T13:00:40.764Z,13.90
2017-11-23T13:03:08.458Z,13.90
2017-11-23T13:05:36.782Z,13.90
2017-11-23T13:08:04.393Z,13.90
2017-11-23T13:10:31.941Z,13.90
2017-11-23T13:12:59.493Z,13.90
2017-11-23T13:15:27.364Z,13.90
2017-11-23T13:17:54.916Z,13.90
2017-11-23T13:20:22.468Z,14.00
2017-11-23T13:22:50.912Z,14.00
2017-11-23T13:25:18.535Z,14.00
2017-11-23T13:27:46.901Z,14.00
2017-11-23T13:30:14.739Z,14.00
2017-11-23T13:32:42.351Z,14.00
2017-11-23T13:35:09.986Z,14.00
2017-11-23T13:37:37.971Z,14.00
2017-11-23T13:40:05.527Z,14.10
2017-11-23T13:42:33.076Z,14.10
2017-11-23T13:45:01.448Z,14.10
2017-11-23T13:47:29.004Z,14.10
2017-11-23T13:49:56.558Z,14.10
2017-11-23T13:52:24.152Z,14.10
2017-11-23T13:54:51.712Z,14.00
2017-11-23T13:57:19.260Z,14.00
2017-11-23T13:59:46.855Z,14.00
2017-11-23T14:02:14.480Z,14.00
2017-11-23T14:04:42.032Z,14.00
2017-11-23T14:07:10.418Z,13.90
2017-11-23T14:09:38.739Z,13.80
2017-11-23T14:12:06.525Z,13.80
2017-11-23T14:14:34.213Z,13.70
2017-11-23T14:17:01.779Z,13.60
2017-11-23T14:19:29.345Z,13.60
2017-11-23T14:21:57.000Z,13.60
2017-11-23T14:24:24.585Z,13.50
2017-11-23T14:26:52.144Z,13.50
2017-11-23T14:29:19.849Z,13.40
2017-11-23T14:31:47.539Z,13.40
2017-11-23T14:34:15.092Z,13.40
2017-11-23T14:36:42.688Z,13.40
2017-11-23T14:39:10.254Z,13.30
2017-11-23T14:41:37.804Z,13.30
2017-11-23T14:44:05.400Z,13.30
2017-11-23T14:46:33.844Z,13.20
2017-11-23T14:49:01.405Z,13.20
2017-11-23T14:51:29.129Z,13.20
2017-11-23T14:53:56.688Z,13.10
2017-11-23T14:56:24.237Z,13.00
2017-11-23T14:58:52.104Z,12.90
2017-11-23T15:01:19.660Z,12.80
2017-11-23T15:03:47.988Z,12.60
2017-11-23T15:06:15.588Z,12.60
2017-11-23T15:08:43.151Z,12.50
2017-11-23T15:11:10.724Z,12.50
2017-11-23T15:13:38.380Z,12.40
2017-11-23T15:16:05.938Z,12.50
2017-11-23T15:18:33.497Z,12.50
2017-11-23T15:21:01.092Z,12.50
2017-11-23T15:23:28.664Z,12.50
2017-11-23T15:25:56.231Z,12.50
2017-11-23T15:28:23.931Z,12.60
2017-11-23T15:30:51.484Z,12.60
2017-11-23T15:33:19.045Z,12.60
2017-11-23T15:35:47.048Z,12.60
2017-11-23T15:38:14.604Z,12.70
2017-11-23T15:40:42.169Z,12.70
2017-11-23T15:43:09.865Z,12.60
2017-11-23T15:45:38.189Z,12.60
2017-11-23T15:48:06.517Z,12.60
2017-11-23T15:50:34.114Z,12.60
2017-11-23T15:53:01.674Z,12.60
2017-11-23T15:55:29.232Z,12.60
2017-11-23T15:57:56.831Z,12.60
2017-11-23T16:00:24.380Z,12.60
2017-11-23T16:02:51.990Z,12.60
2017-11-23T16:05:19.632Z,12.60
2017-11-23T16:07:47.195Z,12.60
2017-11-23T16:10:14.752Z,12.60
2017-11-23T16:12:42.376Z,12.70
2017-11-23T16:15:09.943Z,12.70
2017-11-23T16:17:37.496Z,12.70
2017-11-23T16:20:05.108Z,12.70
2017-11-23T16:22:33.432Z,12.60
2017-11-23T16:25:00.985Z,12.60
2017-11-23T16:27:29.347Z,12.50
2017-11-23T16:29:56.907Z,12.50
2017-11-23T16:32:24.464Z,12.40
2017-11-23T16:34:52.070Z,12.30
2017-11-23T16:37:35.357Z,12.30
2017-11-23T16:40:07.457Z,12.20
2017-11-23T16:42:40.734Z,12.20
2017-11-23T16:45:14.081Z,12.20
2017-11-23T16:50:52.410Z,12.20
2017-11-23T16:53:25.783Z,12.20
2017-11-23T16:56:01.306Z,12.30
2017-11-23T17:01:40.376Z,14.00
2017-11-23T17:04:22.824Z,12.20
2017-11-23T17:06:56.140Z,12.10
2017-11-23T17:12:33.120Z,11.90
2017-11-23T17:15:18.702Z,11.90
2017-11-23T17:20:57.001Z,11.80
2017-11-23T17:23:24.639Z,11.70
2017-11-23T17:25:53.013Z,11.60
2017-11-23T17:28:20.576Z,11.50
2017-11-23T17:30:48.183Z,11.40
2017-11-23T17:33:15.733Z,11.30
2017-11-23T17:35:43.297Z,11.30
2017-11-23T17:38:10.905Z,11.20
2017-11-23T17:40:38.465Z,11.20
2017-11-23T17:43:06.029Z,11.10
2017-11-23T17:45:33.853Z,11.00
2017-11-23T17:48:02.172Z,10.80
2017-11-23T17:50:29.771Z,10.80
2017-11-23T17:52:57.463Z,10.90
2017-11-23T17:55:25.029Z,11.10
2017-11-23T17:57:55.905Z,11.20
2017-11-23T18:00:23.728Z,11.10
2017-11-23T18:02:53.438Z,10.80
2017-11-23T18:05:21.358Z,10.70
2017-11-23T18:07:50.159Z,10.60
2017-11-23T18:10:17.716Z,10.40
2017-11-23T18:12:45.276Z,10.20
2017-11-23T18:15:12.893Z,10.10
2017-11-23T18:17:40.455Z,10.00
2017-11-23T18:20:08.005Z,9.90
2017-11-23T18:22:35.608Z,9.70
2017-11-23T18:25:03.931Z,9.50
2017-11-23T18:27:31.482Z,9.50
2017-11-23T18:29:59.840Z,9.50
2017-11-23T18:32:27.398Z,9.40
2017-11-23T18:34:54.953Z,9.40
2017-11-23T18:37:22.720Z,9.30
2017-11-23T18:39:50.319Z,9.20
2017-11-23T18:42:17.891Z,9.10
2017-11-23T18:44:45.481Z,9.10
2017-11-23T18:47:13.044Z,9.10
2017-11-23T18:49:40.597Z,9.10
2017-11-23T18:52:08.188Z,9.00
2017-11-23T18:54:35.747Z,9.00
2017-11-23T18:57:03.305Z,9.00
2017-11-23T18:59:30.926Z,8.90
2017-11-23T19:01:58.477Z,8.90
2017-11-23T19:04:26.817Z,8.80
2017-11-23T19:06:54.534Z,8.80
2017-11-23T19:09:22.272Z,8.80
2017-11-23T19:11:49.828Z,8.70
2017-11-23T19:14:18.241Z,8.70
2017-11-23T19:16:45.788Z,8.70
2017-11-23T19:19:14.124Z,8.70
2017-11-23T19:21:41.717Z,8.70
2017-11-23T19:24:10.036Z,8.60
2017-11-23T19:26:37.613Z,8.60
2017-11-23T19:29:06.184Z,8.60
2017-11-23T19:31:34.114Z,8.60
2017-11-23T19:34:01.901Z,8.60
2017-11-23T19:36:30.823Z,8.70
2017-11-23T19:38:59.288Z,8.70
2017-11-23T19:41:26.933Z,8.70
2017-11-23T19:43:54.904Z,8.80
2017-11-23T19:46:23.225Z,8.90
2017-11-23T19:48:50.772Z,8.90
2017-11-23T19:51:19.765Z,8.90
2017-11-23T19:53:48.577Z,8.90
2017-11-23T19:56:17.428Z,8.80
2017-11-23T19:58:45.329Z,8.80
2017-11-23T20:01:13.728Z,8.70
2017-11-23T20:03:41.568Z,8.60
2017-11-23T20:06:09.451Z,8.60
2017-11-23T20:08:38.133Z,8.50
2017-11-23T20:11:05.739Z,8.50
2017-11-23T20:13:33.825Z,8.40
2017-11-23T20:16:01.421Z,8.40
2017-11-23T20:18:30.797Z,8.30
2017-11-23T20:20:59.374Z,8.30
2017-11-23T20:23:27.001Z,8.30
2017-11-23T20:25:55.467Z,8.30
2017-11-23T20:28:24.608Z,8.20
2017-11-23T20:30:53.404Z,8.20
2017-11-23T20:33:21.733Z,8.10
2017-11-23T20:35:49.379Z,8.10
2017-11-23T20:38:17.279Z,8.10
2017-11-23T20:40:44.840Z,8.10
2017-11-23T20:43:12.510Z,8.10
2017-11-23T20:45:40.052Z,8.00
2017-11-23T20:48:07.672Z,8.00
2017-11-23T20:50:35.272Z,8.00
2017-11-23T20:53:02.829Z,8.00
2017-11-23T20:55:30.377Z,8.00
2017-11-23T20:57:57.976Z,8.10
2017-11-23T21:00:25.523Z,8.00
2017-11-23T21:02:53.071Z,8.00
2017-11-23T21:05:21.608Z,7.90
2017-11-23T21:07:49.158Z,7.90
2017-11-23T21:10:16.737Z,7.90
2017-11-23T21:12:44.532Z,7.90
2017-11-23T21:15:12.788Z,8.00
2017-11-23T21:17:40.329Z,7.90
2017-11-23T21:20:08.684Z,7.90
2017-11-23T21:22:36.252Z,7.90
2017-11-23T21:25:03.797Z,8.00
2017-11-23T21:27:31.496Z,8.00
2017-11-23T21:29:59.048Z,8.00
2017-11-23T21:32:26.605Z,7.90
2017-11-23T21:34:54.215Z,7.90
2017-11-23T21:37:21.776Z,7.90
2017-11-23T21:39:49.329Z,7.90
2017-11-23T21:42:17.029Z,7.80
2017-11-23T21:44:44.572Z,7.80
2017-11-23T21:47:12.115Z,7.80
2017-11-23T21:49:40.466Z,7.80
2017-11-23T21:52:08.032Z,7.80
2017-11-23T21:54:35.575Z,7.80
2017-11-23T21:57:03.156Z,7.80
2017-11-23T21:59:30.700Z,7.70
2017-11-23T22:01:58.237Z,7.80
2017-11-23T22:04:25.983Z,7.80
2017-11-23T22:06:53.515Z,7.70
2017-11-23T22:09:21.064Z,7.70
2017-11-23T22:11:49.417Z,7.80
2017-11-23T22:14:16.951Z,7.70
2017-11-23T22:16:44.501Z,7.70
2017-11-23T22:19:13.056Z,7.70
2017-11-23T22:21:40.604Z,7.70
2017-11-23T22:24:08.153Z,7.70
2017-11-23T22:26:35.752Z,7.70
2017-11-23T22:29:03.301Z,7.70
2017-11-23T22:31:30.848Z,7.70
2017-11-23T22:33:59.380Z,7.70
2017-11-23T22:36:26.937Z,7.70
2017-11-23T22:38:54.491Z,7.70
2017-11-23T22:41:23.052Z,7.70
2017-11-23T22:43:50.597Z,7.70
2017-11-23T22:46:18.141Z,7.70
2017-11-23T22:48:45.839Z,7.70
2017-11-23T22:51:13.380Z,7.60
2017-11-23T22:53:41.692Z,7.60
2017-11-23T22:58:50.696Z,7.60
2017-11-23T23:01:18.236Z,7.60
2017-11-23T23:03:45.779Z,7.60
2017-11-23T23:06:13.501Z,7.60
2017-11-23T23:08:41.050Z,7.60
2017-11-23T23:11:08.597Z,7.50
2017-11-23T23:13:36.955Z,7.50
2017-11-23T23:16:04.500Z,7.50
2017-11-23T23:18:32.041Z,7.60
2017-11-23T23:20:59.632Z,7.60
2017-11-23T23:23:27.180Z,7.60
2017-11-23T23:25:54.724Z,7.50
2017-11-23T23:28:23.240Z,7.50
2017-11-23T23:30:50.788Z,7.50
2017-11-23T23:33:19.108Z,7.40
2017-11-23T23:35:46.704Z,7.40
2017-11-23T23:38:14.253Z,7.40
2017-11-23T23:40:41.800Z,7.40
2017-11-23T23:43:10.162Z,7.40
2017-11-23T23:45:37.728Z,7.40
2017-11-23T23:48:05.276Z,7.40
2017-11-23T23:50:33.164Z,7.40
2017-11-23T23:53:00.704Z,7.40
2017-11-23T23:55:28.264Z,7.40
2017-11-23T23:57:55.939Z,7.30
